This is the latest recevied weather packets stored in our database for station/object EA3CTN-13. If no packets are shown the sender has not sent any weather packets the latest 10 day(s).
| Time | Temp. | Humidity | Pressure | Rain* | Wind** | Luminosity | Snow |
|---|---|---|---|---|---|---|---|
| 1778005761 | 20.56° C | 39% | 1010.4 hPa | - | - | - | - |
| 1778005280 | 20.56° C | 38% | 1010.6 hPa | - | - | - | - |
| 1778004800 | 20.56° C | 39% | 1010.6 hPa | - | - | - | - |
| 1778004320 | 20.56° C | 40% | 1010.8 hPa | - | - | - | - |
| 1778003840 | 20.56° C | 40% | 1010.8 hPa | - | - | - | - |
| 1778003360 | 20.56° C | 40% | 1010.7 hPa | - | - | - | - |
| 1778002884 | 21.11° C | 40% | 1010.8 hPa | - | - | - | - |
| 1778002400 | 21.11° C | 40% | 1011 hPa | - | - | - | - |
| 1778001920 | 21.11° C | 40% | 1011 hPa | - | - | - | - |
| 1778001440 | 21.11° C | 40% | 1010.9 hPa | - | - | - | - |
| 1778000960 | 21.11° C | 40% | 1011 hPa | - | - | - | - |
| 1778000480 | 21.11° C | 41% | 1011 hPa | - | - | - | - |
| 1778000000 | 21.67° C | 41% | 1011 hPa | - | - | - | - |
| 1777999520 | 22.78° C | 47% | 1011 hPa | - | - | - | - |
| 1777999040 | 22.78° C | 46% | 1010.8 hPa | - | - | - | - |
| 1777998560 | 23.89° C | 43% | 1010.7 hPa | - | - | - | - |
| 1777998080 | 25° C | 42% | 1010.6 hPa | - | - | - | - |
| 1777997600 | 24.44° C | 42% | 1010.6 hPa | - | - | - | - |
| 1777997120 | 26.11° C | 39% | 1010.3 hPa | - | - | - | - |
| 1777996640 | 23.33° C | 46% | 1010.5 hPa | - | - | - | - |
| 1777996160 | 22.22° C | 50% | 1010.6 hPa | - | - | - | - |
| 1777995680 | 21.67° C | 50% | 1010.7 hPa | - | - | - | - |
| 1777995200 | 21.67° C | 49% | 1010.7 hPa | - | - | - | - |
| 1777994720 | 21.67° C | 48% | 1010.6 hPa | - | - | - | - |
| 1777994239 | 21.67° C | 47% | 1010.4 hPa | - | - | - | - |
* Rain since midnight (hover to see other rain measurements)
** Current wind speed in m/s (hover to see current wind gust speed)